Time;durP1;ratioP1;P1;durP2;ratioP2;P2;SDS_P1;SDS_P2;PMS_P1;PMS_P2;Temp;Humidity;BMP_temperature;BMP_pressure;BME280_temperature;BME280_humidity;BME280_pressure;Samples;Min_cycle;Max_cycle;Signal;HPM_P1;HPM_P2
2024/03/09 00:01:37;;;;;;;58.88;42.13;;;4.10;99.90;;;;;;4958722;28;20619;-71
2024/03/09 00:04:05;;;;;;;67.55;46.90;;;4.10;99.90;;;;;;4951408;28;20116;-71
2024/03/09 00:06:33;;;;;;;68.35;47.63;;;4.10;99.90;;;;;;4947364;28;20056;-71
2024/03/09 00:09:01;;;;;;;64.30;45.35;;;4.10;99.90;;;;;;4977410;28;20133;-71
2024/03/09 00:11:28;;;;;;;61.53;44.58;;;4.10;99.90;;;;;;4965376;28;20133;-70
2024/03/09 00:13:56;;;;;;;62.55;45.00;;;4.10;99.90;;;;;;4967753;28;20042;-70
2024/03/09 00:16:23;;;;;;;65.35;47.33;;;4.10;99.90;;;;;;4965675;28;20067;-69
2024/03/09 00:18:51;;;;;;;59.70;41.28;;;4.10;99.90;;;;;;4960744;28;20053;-71
2024/03/09 00:21:18;;;;;;;65.57;45.67;;;4.10;99.90;;;;;;4971446;28;20053;-71
2024/03/09 00:23:50;;;;;;;61.25;43.53;;;4.10;99.90;;;;;;4969023;28;20050;-70
2024/03/09 00:26:18;;;;;;;60.28;44.75;;;4.10;99.90;;;;;;4971613;28;20052;-71
2024/03/09 00:28:45;;;;;;;63.97;43.22;;;4.00;99.90;;;;;;4975301;28;20059;-70
2024/03/09 00:31:12;;;;;;;50.08;36.83;;;4.00;99.90;;;;;;4969451;28;20608;-68
2024/03/09 00:33:41;;;;;;;64.00;46.67;;;4.00;99.90;;;;;;4970173;28;20066;-70
2024/03/09 00:36:09;;;;;;;67.88;47.88;;;4.10;99.90;;;;;;4967946;28;20042;-71
2024/03/09 00:38:37;;;;;;;61.60;44.78;;;4.10;99.90;;;;;;4989135;28;20569;-71
2024/03/09 00:41:05;;;;;;;58.28;43.65;;;4.00;99.90;;;;;;4979606;28;20488;-70
2024/03/09 00:43:36;;;;;;;68.75;45.28;;;4.00;99.90;;;;;;4970963;28;20059;-70
2024/03/09 00:46:04;;;;;;;66.10;46.50;;;4.00;99.90;;;;;;4972421;28;20694;-70
2024/03/09 00:48:34;;;;;;;59.78;41.58;;;4.00;99.90;;;;;;4969659;28;21074;-69
2024/03/09 00:51:01;;;;;;;56.80;42.10;;;3.90;99.90;;;;;;4972449;28;20047;-71
2024/03/09 00:53:28;;;;;;;65.25;44.65;;;3.90;99.90;;;;;;4967684;28;20051;-70
2024/03/09 00:55:56;;;;;;;62.97;43.13;;;3.90;99.90;;;;;;4950981;28;20042;-70
2024/03/09 00:58:23;;;;;;;59.75;44.15;;;3.90;99.90;;;;;;4951530;28;20057;-70
2024/03/09 01:00:51;;;;;;;57.08;40.72;;;3.90;99.90;;;;;;4974546;28;20046;-69
2024/03/09 01:03:18;;;;;;;61.25;41.85;;;3.90;99.90;;;;;;4960941;28;20059;-69
2024/03/09 01:05:45;;;;;;;52.72;38.97;;;3.90;99.90;;;;;;4962738;28;20046;-70
2024/03/09 01:08:13;;;;;;;62.08;42.88;;;3.80;99.90;;;;;;4972989;28;20508;-71
2024/03/09 01:10:44;;;;;;;55.42;41.22;;;3.80;99.90;;;;;;4975283;28;20049;-70
2024/03/09 01:13:11;;;;;;;60.55;41.67;;;3.80;99.90;;;;;;4972442;28;20069;-70
2024/03/09 01:15:39;;;;;;;56.17;42.20;;;3.80;99.90;;;;;;4964911;28;20049;-71
2024/03/09 01:18:07;;;;;;;60.75;44.35;;;3.80;99.90;;;;;;4970472;28;20046;-71
2024/03/09 01:20:35;;;;;;;56.72;39.50;;;3.70;99.90;;;;;;4947746;28;21793;-70
2024/03/09 01:23:04;;;;;;;55.60;41.15;;;3.70;99.90;;;;;;4985299;28;20056;-72
2024/03/09 01:25:31;;;;;;;55.13;40.92;;;3.70;99.90;;;;;;4958173;28;20058;-71
2024/03/09 01:27:58;;;;;;;58.25;39.28;;;3.70;99.90;;;;;;4968340;28;20074;-71
2024/03/09 01:30:25;;;;;;;54.60;41.47;;;3.70;99.90;;;;;;4959569;28;20239;-70
2024/03/09 01:32:53;;;;;;;56.25;39.58;;;3.60;99.90;;;;;;4972130;28;20053;-70
2024/03/09 01:35:23;;;;;;;56.30;40.60;;;3.60;99.90;;;;;;4953594;28;20051;-70
2024/03/09 01:37:50;;;;;;;52.85;40.15;;;3.60;99.90;;;;;;4968712;28;20128;-71
2024/03/09 01:40:18;;;;;;;53.90;38.90;;;3.50;99.90;;;;;;4974761;28;20054;-70
2024/03/09 01:42:45;;;;;;;45.55;35.63;;;3.50;99.90;;;;;;4952060;28;20047;-69
2024/03/09 01:45:12;;;;;;;58.63;40.30;;;3.50;99.90;;;;;;4969425;28;20061;-71
2024/03/09 01:47:39;;;;;;;55.97;39.38;;;3.50;99.90;;;;;;4964374;28;20043;-70
2024/03/09 01:50:10;;;;;;;63.90;43.97;;;3.50;99.90;;;;;;4968084;28;20455;-70
2024/03/09 01:52:39;;;;;;;57.92;42.05;;;3.40;99.90;;;;;;4962708;28;20050;-71
2024/03/09 01:55:08;;;;;;;60.63;40.20;;;3.40;99.90;;;;;;4973436;28;20596;-70
2024/03/09 01:57:37;;;;;;;53.75;40.05;;;3.40;99.90;;;;;;4962307;28;20050;-71
2024/03/09 02:00:09;;;;;;;52.40;39.67;;;3.40;99.90;;;;;;4966279;28;20092;-72
2024/03/09 02:02:37;;;;;;;57.58;41.80;;;3.40;99.90;;;;;;4962629;28;20055;-70
2024/03/09 02:05:10;;;;;;;54.67;41.10;;;3.40;99.90;;;;;;4967195;28;20519;-71
2024/03/09 02:07:40;;;;;;;51.40;38.90;;;3.30;99.90;;;;;;4948181;28;20054;-71
2024/03/09 02:10:11;;;;;;;58.65;41.42;;;3.30;99.90;;;;;;4972408;28;20408;-69
2024/03/09 02:12:42;;;;;;;56.42;40.65;;;3.20;99.90;;;;;;4965669;28;21233;-69
2024/03/09 02:15:16;;;;;;;56.78;40.55;;;3.30;99.90;;;;;;4969174;28;20034;-70
2024/03/09 02:17:46;;;;;;;60.45;42.03;;;3.20;99.90;;;;;;4973197;28;20061;-71
2024/03/09 02:20:16;;;;;;;59.75;40.70;;;3.10;99.90;;;;;;4952490;28;20054;-72
2024/03/09 02:22:46;;;;;;;53.00;40.67;;;3.10;99.90;;;;;;4968370;28;20410;-71
2024/03/09 02:25:15;;;;;;;54.63;40.97;;;3.00;99.90;;;;;;4970028;28;21320;-70
2024/03/09 02:27:42;;;;;;;62.55;41.80;;;3.10;99.90;;;;;;4970329;28;20050;-71
2024/03/09 02:30:11;;;;;;;59.08;40.28;;;3.10;99.90;;;;;;4968680;28;20039;-70
2024/03/09 02:32:39;;;;;;;58.63;41.28;;;3.00;99.90;;;;;;4948952;28;20549;-71
2024/03/09 02:35:09;;;;;;;59.55;43.80;;;3.00;99.90;;;;;;4964187;28;20042;-71
2024/03/09 02:37:37;;;;;;;59.25;41.80;;;2.90;99.90;;;;;;4965282;28;20470;-71
2024/03/09 02:40:07;;;;;;;54.80;40.38;;;2.90;99.90;;;;;;4970788;28;20042;-70
2024/03/09 02:42:38;;;;;;;57.25;41.10;;;2.90;99.90;;;;;;4968982;28;20053;-71
2024/03/09 02:45:07;;;;;;;58.25;40.33;;;2.90;99.90;;;;;;4956743;28;20046;-72
2024/03/09 02:47:34;;;;;;;52.80;39.78;;;2.80;99.90;;;;;;4963611;28;20050;-71
2024/03/09 02:50:05;;;;;;;61.47;41.92;;;2.70;99.90;;;;;;4969247;28;20046;-70
2024/03/09 02:52:33;;;;;;;59.22;40.67;;;2.70;99.90;;;;;;4948765;28;20176;-71
2024/03/09 02:55:01;;;;;;;56.03;39.58;;;2.60;99.90;;;;;;4975916;28;20136;-71
2024/03/09 02:57:28;;;;;;;56.33;40.88;;;2.60;99.90;;;;;;4965228;28;20054;-69
2024/03/09 02:59:55;;;;;;;58.70;41.47;;;2.50;99.90;;;;;;4967557;28;20050;-71
2024/03/09 03:05:08;;;;;;;57.67;39.60;;;2.50;99.90;;;;;;4964818;28;20645;-71
2024/03/09 03:07:35;;;;;;;58.13;41.15;;;2.40;99.90;;;;;;4949041;28;20603;-71
2024/03/09 03:10:02;;;;;;;58.38;41.70;;;2.50;99.90;;;;;;4971615;28;20630;-70
2024/03/09 03:12:29;;;;;;;61.60;42.80;;;2.50;99.90;;;;;;4956932;28;20043;-70
2024/03/09 03:14:57;;;;;;;57.10;38.67;;;2.50;99.90;;;;;;4969677;28;20097;-70
2024/03/09 03:17:26;;;;;;;65.40;42.78;;;2.50;99.90;;;;;;4987739;28;20870;-70
2024/03/09 03:19:53;;;;;;;58.90;40.53;;;2.40;99.90;;;;;;4968479;28;20125;-70
2024/03/09 03:22:21;;;;;;;58.30;37.83;;;2.30;99.90;;;;;;4975436;28;20053;-71
2024/03/09 03:24:48;;;;;;;61.47;40.60;;;2.30;99.90;;;;;;4949668;28;20050;-71
2024/03/09 03:27:15;;;;;;;67.85;42.90;;;2.30;99.90;;;;;;4973457;28;20042;-71
2024/03/09 03:29:42;;;;;;;60.97;42.80;;;2.30;99.90;;;;;;4949699;28;20067;-71
2024/03/09 03:32:10;;;;;;;60.80;40.55;;;2.30;99.90;;;;;;4974659;28;20050;-71
2024/03/09 03:34:37;;;;;;;62.70;41.63;;;2.30;99.90;;;;;;4960237;28;20805;-70
2024/03/09 03:37:04;;;;;;;56.13;40.40;;;2.30;99.90;;;;;;4968675;28;20081;-72
2024/03/09 03:39:31;;;;;;;59.60;42.17;;;2.30;99.90;;;;;;4968062;28;20054;-69
2024/03/09 03:41:58;;;;;;;56.90;40.15;;;2.30;99.90;;;;;;4970355;28;20462;-70
2024/03/09 03:44:30;;;;;;;60.53;41.15;;;2.30;99.90;;;;;;4965409;28;20077;-69
2024/03/09 03:46:57;;;;;;;59.50;39.33;;;2.30;99.90;;;;;;4973186;28;20050;-69
2024/03/09 03:49:26;;;;;;;57.72;40.50;;;2.30;99.90;;;;;;4963033;28;20117;-71
2024/03/09 03:51:55;;;;;;;58.17;39.20;;;2.30;99.90;;;;;;4963736;28;20047;-70
2024/03/09 03:54:22;;;;;;;58.83;40.63;;;2.30;99.90;;;;;;4972869;28;20062;-70
2024/03/09 03:56:49;;;;;;;61.53;40.97;;;2.30;99.90;;;;;;4953571;28;20341;-70
2024/03/09 03:59:16;;;;;;;63.88;42.38;;;2.30;99.90;;;;;;4964662;28;20038;-70
2024/03/09 04:01:44;;;;;;;58.35;40.00;;;2.20;99.90;;;;;;4967238;28;20046;-70
2024/03/09 04:04:11;;;;;;;50.72;32.80;;;2.20;99.90;;;;;;4965520;28;20078;-71
2024/03/09 04:06:44;;;;;;;58.15;38.50;;;2.30;99.90;;;;;;4963017;28;20711;-70
2024/03/09 04:09:14;;;;;;;56.45;41.03;;;2.30;99.90;;;;;;4952539;28;20150;-71
2024/03/09 04:11:43;;;;;;;60.25;40.33;;;2.20;99.90;;;;;;4971955;28;20145;-71
2024/03/09 04:14:11;;;;;;;57.85;38.60;;;2.20;99.90;;;;;;4967129;28;20050;-70
2024/03/09 04:16:38;;;;;;;51.38;34.80;;;2.20;99.90;;;;;;4975087;28;20085;-71
2024/03/09 04:19:06;;;;;;;51.08;33.80;;;2.20;99.90;;;;;;4975941;28;20054;-70
2024/03/09 04:21:34;;;;;;;60.38;39.28;;;2.20;99.90;;;;;;4972310;28;20050;-70
2024/03/09 04:24:01;;;;;;;60.78;38.70;;;2.10;99.90;;;;;;4969642;28;20050;-71
2024/03/09 04:26:28;;;;;;;50.45;34.50;;;2.20;99.90;;;;;;4973495;28;20061;-70
2024/03/09 04:28:58;;;;;;;44.90;31.85;;;2.10;99.90;;;;;;4966955;28;20129;-71
2024/03/09 04:31:25;;;;;;;58.88;40.30;;;2.20;99.90;;;;;;4969551;28;20149;-70
2024/03/09 04:33:52;;;;;;;65.90;40.75;;;2.10;99.90;;;;;;4948427;28;21299;-71
2024/03/09 04:36:19;;;;;;;61.05;41.00;;;2.10;99.90;;;;;;4968094;28;20057;-70
2024/03/09 04:38:47;;;;;;;57.40;39.85;;;2.10;99.90;;;;;;4973276;28;20056;-70
2024/03/09 04:41:14;;;;;;;58.35;41.00;;;2.10;99.90;;;;;;4955861;28;20137;-69
2024/03/09 04:43:41;;;;;;;60.20;40.75;;;2.00;99.90;;;;;;4976799;28;20054;-70
2024/03/09 04:46:08;;;;;;;60.58;37.97;;;1.90;99.90;;;;;;4951597;28;20108;-71
2024/03/09 04:48:35;;;;;;;66.55;43.10;;;1.90;99.90;;;;;;4973121;28;20046;-70
2024/03/09 04:51:03;;;;;;;59.05;39.75;;;1.80;99.90;;;;;;4970324;28;20069;-70
2024/03/09 04:53:29;;;;;;;66.88;40.20;;;1.80;99.90;;;;;;4978864;28;20067;-70
2024/03/09 04:55:57;;;;;;;63.47;42.60;;;1.80;99.90;;;;;;4967334;28;20042;-71
2024/03/09 04:58:28;;;;;;;60.72;40.45;;;1.80;99.90;;;;;;4972112;28;20106;-71
2024/03/09 05:00:55;;;;;;;62.03;43.13;;;1.80;99.90;;;;;;4970242;28;20185;-71
2024/03/09 05:03:22;;;;;;;67.68;41.63;;;1.80;99.90;;;;;;4979115;28;20129;-71
2024/03/09 05:05:49;;;;;;;63.80;41.78;;;1.70;99.90;;;;;;4970604;28;20050;-70
2024/03/09 05:08:16;;;;;;;56.00;36.70;;;1.80;99.90;;;;;;4979581;28;20077;-72
2024/03/09 05:10:43;;;;;;;54.25;36.47;;;1.70;99.90;;;;;;4980725;28;20052;-71
2024/03/09 05:13:11;;;;;;;60.38;38.80;;;1.80;99.90;;;;;;4963035;28;20039;-71
2024/03/09 05:15:38;;;;;;;48.45;32.85;;;1.70;99.90;;;;;;4979987;28;20070;-71
2024/03/09 05:18:10;;;;;;;63.97;41.80;;;1.80;99.90;;;;;;4991118;28;20042;-70
2024/03/09 05:20:37;;;;;;;64.60;41.22;;;1.80;99.90;;;;;;4975680;28;20037;-70
2024/03/09 05:23:07;;;;;;;63.67;41.55;;;1.70;99.90;;;;;;4969988;28;20140;-70
2024/03/09 05:25:41;;;;;;;64.95;40.67;;;1.70;99.90;;;;;;4971169;28;20042;-70
2024/03/09 05:28:12;;;;;;;47.85;33.13;;;1.70;99.90;;;;;;4972588;28;20125;-71
2024/03/09 05:30:41;;;;;;;59.60;40.35;;;1.70;99.90;;;;;;4979042;28;20049;-69
2024/03/09 05:33:11;;;;;;;70.75;42.65;;;1.70;99.90;;;;;;4965810;28;20149;-71
2024/03/09 05:35:39;;;;;;;62.25;40.33;;;1.70;99.90;;;;;;4963467;28;20113;-71
2024/03/09 05:38:08;;;;;;;63.05;41.90;;;1.70;99.90;;;;;;4968471;28;20454;-70
2024/03/09 05:40:37;;;;;;;73.03;44.50;;;1.60;99.90;;;;;;4970320;28;20058;-69
2024/03/09 05:43:07;;;;;;;69.05;41.65;;;1.60;99.90;;;;;;4970680;28;20050;-70
2024/03/09 05:45:36;;;;;;;63.10;40.65;;;1.60;99.90;;;;;;4964064;28;20802;-70
2024/03/09 05:48:05;;;;;;;61.83;40.88;;;1.60;99.90;;;;;;4978556;28;20042;-71
2024/03/09 05:50:35;;;;;;;66.65;42.55;;;1.50;99.90;;;;;;4977684;28;20041;-70
2024/03/09 05:53:02;;;;;;;61.17;37.72;;;1.50;99.90;;;;;;4967136;28;20668;-70
2024/03/09 05:55:29;;;;;;;63.13;41.13;;;1.50;99.90;;;;;;4964732;28;20078;-70
2024/03/09 05:57:57;;;;;;;64.47;40.33;;;1.50;99.90;;;;;;4960201;28;20050;-71
2024/03/09 06:00:27;;;;;;;61.88;40.05;;;1.50;99.90;;;;;;4974434;28;20046;-71
2024/03/09 06:02:57;;;;;;;62.90;40.00;;;1.50;99.90;;;;;;4965435;28;20143;-71
2024/03/09 06:05:28;;;;;;;61.10;38.13;;;1.50;99.90;;;;;;4950824;28;20056;-70
2024/03/09 06:07:57;;;;;;;67.72;43.72;;;1.50;99.90;;;;;;4970747;28;20057;-71
2024/03/09 06:10:25;;;;;;;69.28;41.85;;;1.50;99.90;;;;;;4970959;28;20065;-70
2024/03/09 06:12:53;;;;;;;64.07;43.42;;;1.60;99.90;;;;;;4966770;28;20045;-70
2024/03/09 06:15:22;;;;;;;61.33;42.53;;;1.50;99.90;;;;;;4970644;28;20055;-70
2024/03/09 06:17:54;;;;;;;59.85;41.13;;;1.50;99.90;;;;;;4966869;28;20057;-71
2024/03/09 06:20:26;;;;;;;59.65;39.80;;;1.50;99.90;;;;;;4950199;28;20156;-71
2024/03/09 06:22:56;;;;;;;63.70;42.38;;;1.60;99.90;;;;;;4965748;28;20106;-71
2024/03/09 06:25:29;;;;;;;55.70;40.95;;;1.60;99.90;;;;;;4970318;28;20066;-71
2024/03/09 06:28:02;;;;;;;65.32;41.08;;;1.60;99.90;;;;;;4964732;28;20054;-70
2024/03/09 06:30:29;;;;;;;59.40;41.47;;;1.60;99.90;;;;;;4967689;28;20046;-71
2024/03/09 06:32:59;;;;;;;63.50;43.15;;;1.60;99.90;;;;;;4954530;28;20652;-70
2024/03/09 06:35:30;;;;;;;57.70;40.00;;;1.60;99.90;;;;;;4967590;28;20126;-70
2024/03/09 06:38:05;;;;;;;55.17;40.08;;;1.70;99.90;;;;;;4971786;28;20050;-70
2024/03/09 06:40:39;;;;;;;59.00;39.42;;;1.70;99.90;;;;;;4971582;28;20133;-71
2024/03/09 06:43:11;;;;;;;58.30;39.22;;;1.80;99.90;;;;;;4963076;28;20666;-70
2024/03/09 06:45:40;;;;;;;54.60;38.00;;;1.80;99.90;;;;;;4961789;28;20047;-71
2024/03/09 06:48:07;;;;;;;63.42;40.55;;;1.80;99.90;;;;;;4968014;28;20133;-71
2024/03/09 06:50:44;;;;;;;52.55;39.40;;;1.90;99.90;;;;;;4961363;28;20049;-71
2024/03/09 06:53:12;;;;;;;53.17;38.67;;;1.90;99.90;;;;;;4962440;28;20042;-70
2024/03/09 06:55:39;;;;;;;59.75;42.15;;;2.00;99.90;;;;;;4976278;28;20049;-71
2024/03/09 06:58:06;;;;;;;50.67;37.47;;;2.00;99.90;;;;;;4968009;28;20985;-71
2024/03/09 07:00:34;;;;;;;52.72;38.72;;;2.10;99.90;;;;;;4975785;28;20046;-71
2024/03/09 07:03:06;;;;;;;59.20;42.63;;;2.10;99.90;;;;;;4962848;28;20046;-70
2024/03/09 07:05:34;;;;;;;54.92;38.97;;;2.10;99.90;;;;;;4966235;28;20058;-70
2024/03/09 07:08:03;;;;;;;57.25;39.10;;;2.20;99.90;;;;;;4973085;28;20090;-70
2024/03/09 07:10:32;;;;;;;58.92;42.40;;;2.30;99.90;;;;;;4968727;28;20063;-70
2024/03/09 07:12:59;;;;;;;47.05;36.97;;;2.30;99.90;;;;;;4948266;28;20047;-70
2024/03/09 07:15:28;;;;;;;58.15;42.67;;;2.40;99.90;;;;;;4985346;28;20042;-70
2024/03/09 07:17:56;;;;;;;53.90;40.70;;;2.40;99.90;;;;;;4969433;28;20051;-70
2024/03/09 07:20:25;;;;;;;60.33;44.35;;;2.50;99.90;;;;;;4972478;28;20065;-70
2024/03/09 07:22:53;;;;;;;52.42;39.63;;;2.50;99.90;;;;;;4970472;28;20050;-70
2024/03/09 07:25:26;;;;;;;55.80;44.60;;;2.60;99.90;;;;;;4950646;28;20480;-69
2024/03/09 07:27:58;;;;;;;52.00;41.20;;;2.70;99.90;;;;;;4963389;28;20051;-71
2024/03/09 07:30:26;;;;;;;56.60;42.85;;;2.70;99.90;;;;;;4966167;28;20054;-70
2024/03/09 07:32:53;;;;;;;51.60;41.60;;;2.70;99.90;;;;;;4951224;28;22654;-70
2024/03/09 07:35:27;;;;;;;48.83;39.10;;;2.80;99.90;;;;;;4969064;28;20050;-72
2024/03/09 07:37:58;;;;;;;49.92;44.55;;;2.80;99.90;;;;;;4970859;28;20081;-69
2024/03/09 07:40:31;;;;;;;59.65;47.80;;;2.90;99.90;;;;;;4970734;28;20527;-70
2024/03/09 07:42:59;;;;;;;52.50;45.72;;;2.90;99.90;;;;;;4968721;28;20065;-69
2024/03/09 07:45:28;;;;;;;50.50;44.55;;;2.90;99.90;;;;;;4973074;28;20534;-71
2024/03/09 07:47:55;;;;;;;50.83;44.38;;;2.80;99.90;;;;;;4969312;28;20092;-71
2024/03/09 07:50:23;;;;;;;53.20;44.58;;;2.90;99.90;;;;;;4978877;28;20050;-70
2024/03/09 07:52:53;;;;;;;52.92;43.85;;;2.90;99.90;;;;;;4972051;28;20486;-69
2024/03/09 07:55:26;;;;;;;43.40;38.42;;;2.90;99.90;;;;;;4976694;28;20038;-71
2024/03/09 07:57:54;;;;;;;49.35;44.15;;;2.90;99.90;;;;;;4976755;28;20105;-71
2024/03/09 08:00:39;;;;;;;48.05;38.85;;;3.00;99.90;;;;;;4991653;28;20050;-71
2024/03/09 08:03:07;;;;;;;43.80;36.40;;;3.10;99.90;;;;;;4965980;28;20145;-70
2024/03/09 08:05:34;;;;;;;52.47;45.75;;;3.10;99.90;;;;;;4966621;28;20054;-70
2024/03/09 08:08:04;;;;;;;55.10;44.22;;;3.20;99.90;;;;;;4974738;28;20038;-71
2024/03/09 08:10:32;;;;;;;49.95;44.60;;;3.40;99.90;;;;;;4972955;28;20043;-70
2024/03/09 08:12:59;;;;;;;56.85;50.70;;;3.60;99.90;;;;;;4970503;28;20110;-71
2024/03/09 08:15:29;;;;;;;51.95;45.58;;;3.60;99.90;;;;;;4971456;28;20046;-71
2024/03/09 08:17:57;;;;;;;53.13;47.15;;;3.60;99.90;;;;;;4951735;28;20055;-70
2024/03/09 08:20:24;;;;;;;52.33;46.45;;;3.60;99.90;;;;;;4971405;28;20082;-71
2024/03/09 08:22:54;;;;;;;52.08;46.63;;;3.70;99.90;;;;;;4967936;28;20134;-69
2024/03/09 08:25:27;;;;;;;54.92;48.97;;;3.70;99.90;;;;;;4968479;28;20121;-71
2024/03/09 08:27:54;;;;;;;53.10;45.88;;;3.70;99.90;;;;;;4971655;28;20058;-70
2024/03/09 08:30:21;;;;;;;56.00;46.17;;;3.70;99.90;;;;;;4974901;28;20113;-71
2024/03/09 08:32:53;;;;;;;46.33;41.83;;;3.80;99.90;;;;;;4981828;28;20642;-69
2024/03/09 08:35:21;;;;;;;53.40;45.17;;;3.60;99.90;;;;;;4974124;28;20829;-71
2024/03/09 08:37:50;;;;;;;52.88;47.15;;;3.60;99.90;;;;;;4966934;28;20039;-69
2024/03/09 08:40:30;;;;;;;51.83;45.75;;;3.70;99.90;;;;;;4971089;28;20146;-71
2024/03/09 08:42:58;;;;;;;44.25;39.60;;;3.90;99.90;;;;;;4964547;28;20050;-70
2024/03/09 08:45:29;;;;;;;54.42;46.75;;;4.20;99.90;;;;;;4972609;28;20054;-71
2024/03/09 08:47:56;;;;;;;51.78;46.15;;;4.50;99.90;;;;;;4965976;28;20118;-70
2024/03/09 08:50:25;;;;;;;47.75;41.85;;;4.80;99.90;;;;;;4977851;28;20057;-70
2024/03/09 08:52:53;;;;;;;50.72;43.42;;;5.00;99.90;;;;;;4975101;28;20055;-69
2024/03/09 08:55:20;;;;;;;47.40;40.28;;;5.10;99.90;;;;;;4973333;28;20150;-72
2024/03/09 08:57:48;;;;;;;49.55;42.50;;;5.20;99.90;;;;;;4973699;28;20050;-71
2024/03/09 09:00:19;;;;;;;46.97;41.95;;;5.20;99.90;;;;;;4976796;28;20053;-72
2024/03/09 09:02:48;;;;;;;47.53;42.60;;;5.30;99.90;;;;;;4990982;28;20125;-71
2024/03/09 09:05:18;;;;;;;46.50;41.88;;;5.70;99.90;;;;;;4967869;28;20059;-72
2024/03/09 09:07:46;;;;;;;47.80;42.88;;;5.90;99.90;;;;;;4971126;28;20208;-71
2024/03/09 09:10:14;;;;;;;48.67;43.33;;;5.80;99.90;;;;;;4971765;28;20046;-70
2024/03/09 09:12:43;;;;;;;48.63;43.70;;;5.80;99.90;;;;;;4965303;28;20174;-70
2024/03/09 09:15:11;;;;;;;47.83;42.80;;;5.90;99.90;;;;;;4946616;28;20129;-72
2024/03/09 09:17:42;;;;;;;44.75;39.53;;;6.20;99.90;;;;;;4960858;28;20046;-70
2024/03/09 09:20:11;;;;;;;47.95;43.03;;;6.30;99.90;;;;;;4951426;28;20057;-70
2024/03/09 09:22:41;;;;;;;44.78;40.20;;;6.50;99.90;;;;;;4966775;28;20042;-72
2024/03/09 09:25:14;;;;;;;44.15;39.72;;;6.30;99.90;;;;;;4969020;28;20054;-72
2024/03/09 09:27:45;;;;;;;50.53;45.55;;;6.50;99.90;;;;;;4967195;28;20141;-72
2024/03/09 09:30:12;;;;;;;49.10;44.05;;;6.70;99.90;;;;;;4969799;28;20626;-71
2024/03/09 09:32:40;;;;;;;49.25;44.47;;;7.00;99.90;;;;;;4962589;28;20045;-71
2024/03/09 09:35:10;;;;;;;48.28;43.15;;;7.20;99.90;;;;;;4965923;28;20046;-72
2024/03/09 09:37:37;;;;;;;46.67;42.47;;;7.60;99.90;;;;;;4978868;28;20042;-72
2024/03/09 09:40:07;;;;;;;46.67;41.97;;;8.00;99.90;;;;;;4962445;28;20521;-71
2024/03/09 09:42:35;;;;;;;55.28;50.08;;;7.80;99.90;;;;;;4989782;28;20173;-71
2024/03/09 09:45:04;;;;;;;52.42;47.50;;;7.60;99.90;;;;;;4971596;28;20050;-70
2024/03/09 09:47:33;;;;;;;54.38;49.22;;;7.10;99.90;;;;;;4964924;28;20066;-71
2024/03/09 09:50:02;;;;;;;55.85;50.83;;;7.10;99.90;;;;;;4963079;28;20585;-71
2024/03/09 09:52:32;;;;;;;52.60;47.42;;;7.20;99.90;;;;;;4977397;28;20092;-70
2024/03/09 09:55:01;;;;;;;50.05;45.85;;;6.90;99.90;;;;;;4969799;28;20046;-71
2024/03/09 09:57:31;;;;;;;59.13;53.42;;;6.50;99.90;;;;;;4975467;28;20046;-71
2024/03/09 09:59:58;;;;;;;52.42;47.25;;;6.40;99.90;;;;;;4959805;28;20590;-70
2024/03/09 10:02:30;;;;;;;49.78;45.03;;;6.50;99.90;;;;;;4974831;28;20628;-71
2024/03/09 10:04:59;;;;;;;52.40;47.50;;;6.50;99.90;;;;;;4961651;28;20049;-69
2024/03/09 10:07:26;;;;;;;52.70;47.70;;;6.30;99.90;;;;;;4988562;28;20045;-72
2024/03/09 10:09:54;;;;;;;54.10;49.10;;;6.30;99.90;;;;;;4964197;28;20519;-71
2024/03/09 10:12:22;;;;;;;49.75;45.40;;;6.30;99.90;;;;;;4949173;28;20424;-71
2024/03/09 10:14:51;;;;;;;51.55;46.42;;;6.20;99.90;;;;;;4975723;28;20125;-70
2024/03/09 10:17:19;;;;;;;46.72;42.33;;;6.20;99.90;;;;;;4968583;28;20441;-71
2024/03/09 10:19:51;;;;;;;47.33;42.90;;;6.20;99.90;;;;;;4963951;28;20073;-70
2024/03/09 10:22:21;;;;;;;53.92;48.97;;;6.40;99.90;;;;;;4928266;28;20610;-72
2024/03/09 10:24:58;;;;;;;52.47;47.42;;;6.30;99.90;;;;;;4956199;28;20081;-72
2024/03/09 10:27:28;;;;;;;53.53;48.65;;;6.40;99.90;;;;;;4951155;28;21470;-71
2024/03/09 10:30:10;;;;;;;53.55;48.45;;;6.50;99.90;;;;;;4960217;28;20046;-72
2024/03/09 10:32:41;;;;;;;45.03;40.45;;;6.70;99.90;;;;;;4955652;28;20165;-70
2024/03/09 10:35:10;;;;;;;42.45;38.30;;;6.90;99.90;;;;;;4962334;28;20053;-70
2024/03/09 10:37:40;;;;;;;48.15;44.08;;;6.80;99.90;;;;;;4956052;28;20038;-70
2024/03/09 10:40:16;;;;;;;50.00;45.58;;;6.60;99.90;;;;;;4960023;28;20451;-69
2024/03/09 10:42:46;;;;;;;49.75;45.15;;;6.80;99.90;;;;;;4957847;28;20046;-70
2024/03/09 10:45:17;;;;;;;46.92;42.75;;;7.20;99.90;;;;;;4980035;28;20312;-70
2024/03/09 10:47:57;;;;;;;49.03;44.47;;;7.20;99.90;;;;;;4968732;28;20116;-69
2024/03/09 10:50:24;;;;;;;42.70;39.35;;;6.90;99.90;;;;;;4963820;28;20094;-71
2024/03/09 10:53:21;;;;;;;48.10;43.60;;;6.70;99.90;;;;;;4972556;28;20043;-70
2024/03/09 10:55:53;;;;;;;50.72;46.13;;;6.90;99.90;;;;;;4967158;28;21929;-70
2024/03/09 10:58:26;;;;;;;54.78;49.45;;;7.30;99.90;;;;;;4963727;28;20113;-71
2024/03/09 11:00:54;;;;;;;55.00;50.20;;;7.60;99.90;;;;;;4960584;28;20530;-71
2024/03/09 11:03:23;;;;;;;57.10;52.28;;;7.70;99.90;;;;;;4960367;28;20661;-70
2024/03/09 11:05:53;;;;;;;53.25;48.67;;;7.80;99.90;;;;;;4963702;28;20053;-70
2024/03/09 11:08:22;;;;;;;55.08;50.55;;;7.50;99.90;;;;;;4970859;28;20050;-70
2024/03/09 11:10:50;;;;;;;54.22;49.72;;;7.70;99.90;;;;;;4975299;28;20042;-71
2024/03/09 11:13:19;;;;;;;57.00;51.72;;;7.90;99.90;;;;;;4966237;28;20046;-69
2024/03/09 11:15:52;;;;;;;55.35;50.65;;;8.00;99.90;;;;;;4970146;28;20050;-71
2024/03/09 11:18:21;;;;;;;58.70;53.67;;;8.20;99.90;;;;;;4966582;28;20050;-71
2024/03/09 11:21:01;;;;;;;57.50;52.45;;;8.20;99.90;;;;;;4973034;28;20046;-70
2024/03/09 11:23:33;;;;;;;57.40;52.38;;;8.60;99.90;;;;;;4970497;28;20094;-71
2024/03/09 11:26:03;;;;;;;57.53;52.53;;;9.10;99.90;;;;;;4978066;28;20062;-71
2024/03/09 11:28:43;;;;;;;55.83;51.25;;;9.10;99.90;;;;;;4975281;28;20105;-71
2024/03/09 11:31:10;;;;;;;51.85;47.95;;;8.90;99.90;;;;;;4968956;28;20687;-69
2024/03/09 11:33:44;;;;;;;55.90;51.20;;;9.10;99.90;;;;;;4975131;28;20037;-69
2024/03/09 11:36:43;;;;;;;58.88;54.03;;;9.00;99.90;;;;;;4954743;28;20104;-72
2024/03/09 11:39:12;;;;;;;58.97;54.15;;;8.90;99.90;;;;;;4977236;28;20669;-71
2024/03/09 11:41:45;;;;;;;54.20;49.78;;;9.00;99.90;;;;;;4973208;28;20156;-70
2024/03/09 11:44:24;;;;;;;59.85;54.95;;;9.10;99.90;;;;;;4970342;28;20054;-71
2024/03/09 11:46:51;;;;;;;58.85;53.55;;;9.10;99.90;;;;;;4979039;28;20054;-71
2024/03/09 11:49:18;;;;;;;53.38;49.00;;;9.00;99.90;;;;;;4971128;28;20121;-71
2024/03/09 11:51:45;;;;;;;57.38;52.75;;;9.00;99.90;;;;;;4973762;28;20045;-70
2024/03/09 11:54:19;;;;;;;58.58;53.33;;;9.00;99.90;;;;;;4966167;28;20055;-70
2024/03/09 11:56:46;;;;;;;57.42;52.70;;;8.90;99.90;;;;;;4983775;28;20058;-71
2024/03/09 11:59:15;;;;;;;55.00;50.55;;;8.90;99.90;;;;;;4972306;28;20176;-70
2024/03/09 12:01:43;;;;;;;58.42;53.40;;;9.20;99.90;;;;;;4976352;28;20053;-71
2024/03/09 12:04:11;;;;;;;58.50;53.75;;;9.70;99.90;;;;;;4953222;28;20050;-71
2024/03/09 12:06:41;;;;;;;58.75;53.97;;;10.10;99.90;;;;;;4977434;28;20068;-69
2024/03/09 12:09:10;;;;;;;59.30;54.63;;;10.10;99.90;;;;;;4975161;28;20046;-70
2024/03/09 12:11:51;;;;;;;58.17;53.47;;;9.90;99.90;;;;;;4990404;28;20396;-69
2024/03/09 12:14:18;;;;;;;58.88;54.40;;;9.90;99.90;;;;;;4968396;28;20054;-71
2024/03/09 12:16:49;;;;;;;58.97;54.38;;;9.80;99.90;;;;;;4976331;28;20037;-71
2024/03/09 12:19:17;;;;;;;60.10;55.20;;;9.80;99.90;;;;;;4967823;28;20125;-71
2024/03/09 12:21:45;;;;;;;60.30;55.72;;;9.80;99.90;;;;;;4973033;28;20058;-70
2024/03/09 12:24:14;;;;;;;62.40;57.50;;;9.90;99.90;;;;;;4956618;28;20046;-68
2024/03/09 12:26:41;;;;;;;63.72;58.63;;;10.10;99.90;;;;;;4971425;28;20559;-71
2024/03/09 12:29:12;;;;;;;63.40;58.17;;;10.00;99.90;;;;;;4964271;28;20058;-70
2024/03/09 12:31:42;;;;;;;62.97;57.88;;;10.10;99.90;;;;;;4973578;28;20077;-71
2024/03/09 12:34:11;;;;;;;63.08;58.40;;;10.10;99.90;;;;;;4969217;28;20396;-69
2024/03/09 12:36:50;;;;;;;60.67;55.97;;;10.30;99.90;;;;;;4970392;28;20042;-70
2024/03/09 12:39:17;;;;;;;65.55;60.45;;;10.30;99.90;;;;;;4965867;28;20054;-71
2024/03/09 12:41:52;;;;;;;63.22;58.47;;;10.50;99.90;;;;;;4972805;28;20132;-70
2024/03/09 12:44:20;;;;;;;64.80;59.53;;;10.60;99.90;;;;;;4962428;28;20073;-70
2024/03/09 12:46:49;;;;;;;60.58;56.05;;;10.40;99.90;;;;;;4983523;28;20569;-70
2024/03/09 12:49:16;;;;;;;67.10;61.95;;;10.20;99.90;;;;;;4970809;28;20523;-71